createdAt,value
2022-12-23T00:00:54.726Z,11.20
2022-12-23T00:03:24.211Z,11.10
2022-12-23T00:05:52.529Z,11.00
2022-12-23T00:08:21.661Z,11.00
2022-12-23T00:10:51.065Z,11.00
2022-12-23T00:13:39.736Z,11.00
2022-12-23T00:16:16.267Z,11.00
2022-12-23T00:18:44.630Z,11.10
2022-12-23T00:21:17.784Z,11.10
2022-12-23T00:23:47.890Z,11.10
2022-12-23T00:26:21.874Z,11.10
2022-12-23T00:28:49.937Z,11.00
2022-12-23T00:31:19.057Z,11.00
2022-12-23T00:33:49.356Z,10.90
2022-12-23T00:36:28.785Z,10.90
2022-12-23T00:39:18.742Z,10.90
2022-12-23T00:42:04.886Z,10.90
2022-12-23T00:44:32.768Z,10.80
2022-12-23T00:47:00.865Z,10.90
2022-12-23T00:49:43.114Z,11.00
2022-12-23T00:52:14.157Z,11.10
2022-12-23T00:54:43.044Z,11.20
2022-12-23T00:57:11.801Z,11.30
2022-12-23T00:59:39.235Z,11.30
2022-12-23T01:02:25.190Z,11.30
2022-12-23T01:05:10.978Z,11.40
2022-12-23T01:07:38.434Z,11.50
2022-12-23T01:10:06.204Z,11.60
2022-12-23T01:12:33.527Z,11.60
2022-12-23T01:15:02.077Z,11.60
2022-12-23T01:17:30.052Z,11.60
2022-12-23T01:19:57.600Z,11.50
2022-12-23T01:22:25.867Z,11.50
2022-12-23T01:24:53.154Z,11.40
2022-12-23T01:27:20.443Z,11.30
2022-12-23T01:29:48.182Z,11.30
2022-12-23T01:32:15.543Z,11.30
2022-12-23T01:34:53.980Z,11.30
2022-12-23T01:37:21.906Z,11.30
2022-12-23T01:39:49.297Z,11.30
2022-12-23T01:42:38.505Z,11.30
2022-12-23T01:45:16.358Z,11.30
2022-12-23T01:47:55.751Z,11.30
2022-12-23T01:50:40.894Z,11.30
2022-12-23T01:53:27.245Z,11.40
2022-12-23T01:56:03.127Z,11.40
2022-12-23T01:58:40.683Z,11.50
2022-12-23T02:01:47.694Z,11.40
2022-12-23T02:04:21.158Z,11.50
2022-12-23T02:07:09.298Z,11.50
2022-12-23T02:09:39.363Z,11.60
2022-12-23T02:12:25.161Z,11.60
2022-12-23T02:15:46.617Z,11.70
2022-12-23T02:19:01.312Z,11.70
2022-12-23T02:21:42.538Z,11.60
2022-12-23T02:24:35.407Z,11.50
2022-12-23T02:27:13.061Z,11.50
2022-12-23T02:30:20.995Z,11.40
2022-12-23T02:33:16.305Z,11.30
2022-12-23T02:35:52.294Z,11.30
2022-12-23T02:38:25.468Z,11.20
2022-12-23T02:41:07.021Z,11.20
2022-12-23T02:43:49.389Z,11.20
2022-12-23T02:46:26.405Z,11.20
2022-12-23T02:48:55.771Z,11.20
2022-12-23T02:51:28.307Z,11.30
2022-12-23T02:54:01.437Z,11.30
2022-12-23T02:56:32.275Z,11.30
2022-12-23T02:59:19.176Z,11.30
2022-12-23T03:01:47.650Z,11.40
2022-12-23T03:04:15.347Z,11.30
2022-12-23T03:06:46.229Z,11.30
2022-12-23T03:09:37.333Z,11.30
2022-12-23T03:12:50.448Z,11.20
2022-12-23T03:15:26.971Z,11.30
2022-12-23T03:18:50.225Z,11.20
2022-12-23T03:21:24.660Z,11.20
2022-12-23T03:23:59.456Z,11.20
2022-12-23T03:26:39.620Z,11.20
2022-12-23T03:29:26.590Z,11.20
2022-12-23T03:31:58.765Z,11.20
2022-12-23T03:34:31.073Z,11.20
2022-12-23T03:37:03.134Z,11.20
2022-12-23T03:39:36.825Z,11.30
2022-12-23T03:42:16.345Z,11.30
2022-12-23T03:45:19.071Z,11.30
2022-12-23T03:47:44.831Z,11.20
2022-12-23T03:50:14.555Z,11.10
2022-12-23T03:53:10.960Z,11.10
2022-12-23T03:55:43.256Z,11.10
2022-12-23T03:58:13.999Z,11.10
2022-12-23T04:00:52.846Z,11.10
2022-12-23T04:03:35.823Z,11.10
2022-12-23T04:06:10.883Z,11.10
2022-12-23T04:08:39.815Z,11.10
2022-12-23T04:11:07.613Z,11.10
2022-12-23T04:13:35.215Z,11.10
2022-12-23T04:16:04.019Z,11.10
2022-12-23T04:18:31.454Z,11.10
2022-12-23T04:20:58.999Z,11.10
2022-12-23T04:23:26.301Z,11.10
2022-12-23T04:25:53.968Z,11.10
2022-12-23T04:28:21.423Z,11.10
2022-12-23T04:30:49.818Z,11.00
2022-12-23T04:33:17.086Z,11.00
2022-12-23T04:35:44.559Z,11.00
2022-12-23T04:38:11.908Z,11.00
2022-12-23T04:40:39.231Z,11.00
2022-12-23T04:43:06.639Z,11.10
2022-12-23T04:45:34.002Z,11.10
2022-12-23T04:48:01.261Z,11.10
2022-12-23T04:50:28.712Z,11.10
2022-12-23T04:52:56.074Z,11.10
2022-12-23T04:55:23.493Z,11.10
2022-12-23T04:57:50.938Z,11.10
2022-12-23T05:00:18.737Z,11.10
2022-12-23T05:02:46.189Z,11.10
2022-12-23T05:05:13.676Z,11.10
2022-12-23T05:07:41.029Z,11.10
2022-12-23T05:10:09.519Z,11.10
2022-12-23T05:12:37.023Z,11.10
2022-12-23T05:15:04.500Z,11.10
2022-12-23T05:17:31.813Z,11.10
2022-12-23T05:19:59.257Z,11.20
2022-12-23T05:22:26.824Z,11.20
2022-12-23T05:24:54.277Z,11.30
2022-12-23T05:27:21.572Z,11.50
2022-12-23T05:29:48.982Z,11.60
2022-12-23T05:32:16.269Z,11.70
2022-12-23T05:34:43.812Z,11.80
2022-12-23T05:37:11.140Z,11.80
2022-12-23T05:39:38.532Z,11.90
2022-12-23T05:42:06.201Z,11.90
2022-12-23T05:44:33.599Z,11.90
2022-12-23T05:47:00.948Z,11.90
2022-12-23T05:49:28.330Z,11.80
2022-12-23T05:51:55.611Z,11.80
2022-12-23T05:54:24.462Z,11.80
2022-12-23T05:56:51.712Z,11.80
2022-12-23T05:59:19.167Z,11.80
2022-12-23T06:01:46.692Z,11.90
2022-12-23T06:04:14.068Z,11.90
2022-12-23T06:06:41.563Z,11.90
2022-12-23T06:09:09.842Z,11.90
2022-12-23T06:11:37.475Z,11.90
2022-12-23T06:14:06.370Z,11.80
2022-12-23T06:16:34.336Z,11.90
2022-12-23T06:19:01.633Z,11.90
2022-12-23T06:21:28.969Z,11.90
2022-12-23T06:23:56.397Z,11.90
2022-12-23T06:26:23.897Z,11.90
2022-12-23T06:28:51.375Z,12.00
2022-12-23T06:31:18.889Z,12.10
2022-12-23T06:33:46.375Z,12.10
2022-12-23T06:36:13.776Z,12.10
2022-12-23T06:38:41.319Z,12.10
2022-12-23T06:41:09.940Z,12.00
2022-12-23T06:43:37.449Z,12.00
2022-12-23T06:46:05.010Z,12.00
2022-12-23T06:48:32.666Z,12.00
2022-12-23T06:51:00.048Z,12.10
2022-12-23T06:53:27.499Z,12.10
2022-12-23T06:56:02.182Z,12.00
2022-12-23T06:58:30.386Z,12.00
2022-12-23T07:00:59.716Z,12.10
2022-12-23T07:03:27.134Z,12.10
2022-12-23T07:05:58.318Z,12.20
2022-12-23T07:08:25.720Z,12.20
2022-12-23T07:11:01.951Z,12.20
2022-12-23T07:13:31.202Z,12.30
2022-12-23T07:15:59.843Z,12.30
2022-12-23T07:18:27.385Z,12.30
2022-12-23T07:21:00.336Z,12.40
2022-12-23T07:23:27.988Z,12.40
2022-12-23T07:25:55.979Z,12.50
2022-12-23T07:28:24.027Z,12.60
2022-12-23T07:30:52.114Z,12.60
2022-12-23T07:33:19.472Z,12.60
2022-12-23T07:35:48.017Z,12.50
2022-12-23T07:38:16.114Z,12.50
2022-12-23T07:40:45.292Z,12.40
2022-12-23T07:43:21.270Z,12.40
2022-12-23T07:45:51.335Z,12.50
2022-12-23T07:48:28.857Z,12.60
2022-12-23T07:51:04.169Z,12.80
2022-12-23T07:53:31.607Z,12.90
2022-12-23T07:55:58.974Z,13.10
2022-12-23T07:58:26.704Z,13.20
2022-12-23T08:01:08.248Z,13.40
2022-12-23T08:03:39.201Z,13.50
2022-12-23T08:06:09.933Z,13.60
2022-12-23T08:08:37.950Z,13.60
2022-12-23T08:11:07.963Z,13.70
2022-12-23T08:13:38.088Z,13.80
2022-12-23T08:16:12.014Z,14.00
2022-12-23T08:18:41.505Z,14.10
2022-12-23T08:21:19.442Z,14.30
2022-12-23T08:23:48.476Z,14.40
2022-12-23T08:26:24.038Z,14.50
2022-12-23T08:28:53.718Z,14.60
2022-12-23T08:31:49.051Z,14.70
2022-12-23T08:34:17.091Z,14.80
2022-12-23T08:36:44.449Z,14.90
2022-12-23T08:39:12.306Z,15.00
2022-12-23T08:41:42.735Z,15.00
2022-12-23T08:44:10.852Z,15.10
2022-12-23T08:46:39.087Z,15.10
2022-12-23T08:49:07.688Z,15.20
2022-12-23T08:51:36.357Z,15.30
2022-12-23T08:54:04.604Z,15.40
2022-12-23T08:56:39.518Z,15.50
2022-12-23T08:59:09.339Z,15.60
2022-12-23T09:01:41.040Z,15.60
2022-12-23T09:04:09.653Z,15.70
2022-12-23T09:06:41.734Z,15.70
2022-12-23T09:09:11.805Z,15.80
2022-12-23T09:11:39.795Z,15.90
2022-12-23T09:14:08.919Z,16.00
2022-12-23T09:16:36.543Z,16.10
2022-12-23T09:19:04.953Z,16.30
2022-12-23T09:21:32.467Z,16.40
2022-12-23T09:23:59.824Z,16.50
2022-12-23T09:26:30.204Z,16.70
2022-12-23T09:28:58.169Z,16.80
2022-12-23T09:31:29.270Z,16.90
2022-12-23T09:34:01.745Z,17.00
2022-12-23T09:36:30.143Z,17.10
2022-12-23T09:38:58.723Z,17.30
2022-12-23T09:41:38.607Z,17.40
2022-12-23T09:44:15.050Z,17.60
2022-12-23T09:46:51.759Z,17.70
2022-12-23T09:49:22.453Z,17.80
2022-12-23T09:51:54.250Z,17.90
2022-12-23T09:58:15.985Z,18.30
2022-12-23T10:01:13.213Z,18.60
2022-12-23T10:04:10.280Z,18.70
2022-12-23T10:06:40.408Z,18.90
2022-12-23T10:09:10.396Z,18.90
2022-12-23T10:11:44.119Z,19.00
2022-12-23T10:14:25.218Z,19.10
2022-12-23T10:17:05.363Z,19.00
2022-12-23T10:19:42.255Z,18.90
2022-12-23T10:22:35.314Z,18.80
2022-12-23T10:25:05.805Z,18.80
2022-12-23T10:27:34.813Z,18.80
2022-12-23T10:30:34.277Z,18.90
2022-12-23T10:33:22.188Z,18.70
2022-12-23T10:35:55.767Z,18.60
2022-12-23T10:38:46.924Z,18.70
2022-12-23T10:41:48.669Z,18.80
2022-12-23T10:44:32.209Z,18.90
2022-12-23T10:47:19.942Z,19.00
2022-12-23T10:49:53.495Z,19.20
2022-12-23T10:52:28.427Z,19.30
2022-12-23T10:54:55.772Z,19.50
2022-12-23T10:57:24.929Z,19.60
2022-12-23T10:59:52.553Z,19.50
2022-12-23T11:02:48.785Z,19.50
2022-12-23T11:05:21.196Z,19.70
2022-12-23T11:07:48.748Z,19.80
2022-12-23T11:10:26.023Z,20.10
2022-12-23T11:12:54.403Z,20.30
2022-12-23T11:15:40.465Z,20.70
2022-12-23T11:18:14.812Z,21.00
2022-12-23T11:20:44.917Z,20.90
2022-12-23T11:23:30.454Z,20.80
2022-12-23T11:26:03.467Z,20.60
2022-12-23T11:28:32.936Z,20.70
2022-12-23T11:31:30.753Z,20.90
2022-12-23T11:34:07.801Z,20.90
2022-12-23T11:36:35.710Z,21.00
2022-12-23T11:39:13.158Z,21.00
2022-12-23T11:41:49.835Z,20.90
2022-12-23T11:44:23.127Z,20.70
2022-12-23T11:46:50.870Z,20.80
2022-12-23T11:49:27.611Z,20.70
2022-12-23T11:52:17.259Z,20.40
2022-12-23T11:54:54.759Z,20.40
2022-12-23T11:57:39.486Z,20.40
2022-12-23T12:00:18.731Z,20.60
2022-12-23T12:02:50.976Z,20.80
2022-12-23T12:05:33.033Z,21.30
2022-12-23T12:08:11.727Z,21.90
2022-12-23T12:10:40.651Z,22.60
2022-12-23T12:13:28.811Z,23.10
2022-12-23T12:16:11.557Z,23.40
2022-12-23T12:18:43.080Z,23.90
2022-12-23T12:21:48.176Z,23.90
2022-12-23T12:25:02.882Z,24.20
2022-12-23T12:27:39.994Z,24.50
2022-12-23T12:30:17.964Z,24.80
2022-12-23T12:32:57.206Z,25.10
2022-12-23T12:36:30.222Z,24.90
2022-12-23T12:39:01.779Z,25.10
2022-12-23T12:41:42.714Z,25.50
2022-12-23T12:44:56.460Z,25.40
2022-12-23T12:47:59.954Z,24.80
2022-12-23T12:50:39.787Z,24.40
2022-12-23T12:53:18.889Z,24.10
2022-12-23T12:55:52.773Z,23.90
2022-12-23T12:58:22.905Z,23.30
2022-12-23T13:01:15.408Z,22.30
2022-12-23T13:04:04.926Z,21.80
2022-12-23T13:06:40.420Z,21.40
2022-12-23T13:10:11.118Z,21.00
2022-12-23T13:23:10.191Z,19.90
2022-12-23T13:36:33.352Z,19.90
2022-12-23T13:39:14.904Z,19.90
2022-12-23T13:41:59.896Z,19.90
2022-12-23T13:44:41.874Z,19.90
2022-12-23T13:47:52.407Z,19.90
2022-12-23T13:50:47.357Z,20.00
2022-12-23T13:53:26.078Z,20.20
2022-12-23T13:56:12.104Z,20.30
2022-12-23T13:58:41.010Z,20.50
2022-12-23T14:01:13.206Z,20.50
2022-12-23T14:03:41.226Z,20.60
2022-12-23T14:06:41.155Z,20.70
2022-12-23T14:09:17.010Z,20.60
2022-12-23T14:11:47.076Z,20.60
2022-12-23T14:14:22.343Z,20.60
2022-12-23T14:17:06.077Z,20.50
2022-12-23T14:20:24.402Z,20.40
2022-12-23T14:23:18.911Z,20.30
2022-12-23T14:26:17.219Z,20.20
2022-12-23T14:29:12.251Z,20.10
2022-12-23T14:31:46.408Z,20.00
2022-12-23T14:34:20.397Z,20.00
2022-12-23T14:37:15.919Z,19.90
2022-12-23T14:39:44.464Z,19.80
2022-12-23T14:42:22.386Z,19.60
2022-12-23T14:44:50.656Z,19.50
2022-12-23T14:47:40.349Z,19.30
2022-12-23T14:50:33.215Z,19.20
2022-12-23T14:53:02.815Z,19.10
2022-12-23T14:55:31.469Z,19.00
2022-12-23T14:58:20.515Z,18.90
2022-12-23T15:00:50.053Z,18.90
2022-12-23T15:03:19.708Z,18.70
2022-12-23T15:05:51.413Z,18.70
2022-12-23T15:08:33.323Z,18.50
2022-12-23T15:11:00.896Z,18.40
2022-12-23T15:13:29.951Z,18.20
2022-12-23T15:16:01.707Z,18.20
2022-12-23T15:18:29.844Z,18.10
2022-12-23T15:21:10.792Z,18.00
2022-12-23T15:23:38.173Z,17.90
2022-12-23T15:26:05.613Z,17.80
2022-12-23T15:28:37.916Z,17.80
2022-12-23T15:31:06.440Z,17.70
2022-12-23T15:34:02.066Z,17.70
2022-12-23T15:36:37.065Z,17.60
2022-12-23T15:39:10.969Z,17.50
2022-12-23T15:41:46.047Z,17.40
2022-12-23T15:44:22.109Z,17.30
2022-12-23T15:46:50.926Z,17.30
2022-12-23T15:49:21.049Z,17.20
2022-12-23T15:52:08.536Z,17.20
2022-12-23T15:54:54.502Z,17.10
2022-12-23T15:57:26.489Z,17.10
2022-12-23T15:59:54.571Z,17.00
2022-12-23T16:05:28.331Z,16.90
2022-12-23T16:08:14.180Z,16.80
2022-12-23T16:10:42.540Z,16.80
2022-12-23T16:13:21.223Z,16.80
2022-12-23T16:15:48.776Z,16.80
2022-12-23T16:18:32.986Z,16.70
2022-12-23T16:21:03.325Z,16.70
2022-12-23T16:23:36.704Z,16.60
2022-12-23T16:26:04.597Z,16.50
2022-12-23T16:28:41.242Z,16.40
2022-12-23T16:31:11.745Z,16.30
2022-12-23T16:33:48.458Z,16.20
2022-12-23T16:36:28.000Z,16.10
2022-12-23T16:39:07.674Z,16.00
2022-12-23T16:41:35.773Z,15.90
2022-12-23T16:44:03.709Z,15.80
2022-12-23T16:46:44.053Z,15.80
2022-12-23T16:49:16.799Z,15.70
2022-12-23T16:51:44.479Z,15.60
2022-12-23T16:54:20.482Z,15.60
2022-12-23T16:56:53.202Z,15.70
2022-12-23T16:59:21.285Z,15.70
2022-12-23T17:01:49.753Z,15.60
2022-12-23T17:04:17.285Z,15.50
2022-12-23T17:06:46.751Z,15.50
2022-12-23T17:09:14.583Z,15.50
2022-12-23T17:11:43.582Z,15.40
2022-12-23T17:14:22.359Z,15.40
2022-12-23T17:16:50.008Z,15.40
2022-12-23T17:19:25.236Z,15.30
2022-12-23T17:22:01.318Z,15.30
2022-12-23T17:24:29.017Z,15.30
2022-12-23T17:27:00.038Z,15.30
2022-12-23T17:29:28.494Z,15.40
2022-12-23T17:31:55.895Z,15.50
2022-12-23T17:34:24.590Z,15.60
2022-12-23T17:36:53.293Z,15.70
2022-12-23T17:39:21.457Z,15.80
2022-12-23T17:41:49.394Z,15.80
2022-12-23T17:44:19.019Z,15.90
2022-12-23T17:46:47.077Z,15.80
2022-12-23T17:49:14.577Z,15.80
2022-12-23T17:51:42.693Z,15.70
2022-12-23T17:54:23.279Z,15.70
2022-12-23T17:56:51.316Z,15.60
2022-12-23T17:59:18.963Z,15.50
2022-12-23T18:01:46.951Z,15.40
2022-12-23T18:04:14.401Z,15.30
2022-12-23T18:06:41.926Z,15.30
2022-12-23T18:09:09.352Z,15.20
2022-12-23T18:11:42.934Z,15.10
2022-12-23T18:14:20.028Z,15.10
2022-12-23T18:16:47.513Z,15.00
2022-12-23T18:19:20.318Z,15.00
2022-12-23T18:21:48.319Z,14.90
2022-12-23T18:24:16.055Z,14.90
2022-12-23T18:26:44.051Z,14.80
2022-12-23T18:29:11.412Z,14.80
2022-12-23T18:31:51.029Z,14.80
2022-12-23T18:34:20.529Z,14.80
2022-12-23T18:36:48.648Z,14.70
2022-12-23T18:39:16.190Z,14.60
2022-12-23T18:41:43.793Z,14.50
2022-12-23T18:44:20.873Z,14.50
2022-12-23T18:46:49.264Z,14.50
2022-12-23T18:49:18.155Z,14.40
2022-12-23T18:51:46.489Z,14.40
2022-12-23T18:54:15.143Z,14.40
2022-12-23T18:56:43.316Z,14.40
2022-12-23T18:59:18.593Z,14.40
2022-12-23T19:01:47.660Z,14.30
2022-12-23T19:04:15.169Z,14.20
2022-12-23T19:06:42.603Z,14.30
2022-12-23T19:09:24.216Z,14.30
2022-12-23T19:11:53.589Z,14.30
2022-12-23T19:14:23.356Z,14.40
2022-12-23T19:16:52.369Z,14.30
2022-12-23T19:19:20.590Z,14.30
2022-12-23T19:21:47.888Z,14.20
2022-12-23T19:24:15.247Z,14.20
2022-12-23T19:26:42.532Z,14.20
2022-12-23T19:29:09.999Z,14.30
2022-12-23T19:31:37.444Z,14.30
2022-12-23T19:34:08.258Z,14.40
2022-12-23T19:36:40.359Z,14.40
2022-12-23T19:39:16.561Z,14.50
2022-12-23T19:41:44.865Z,14.50
2022-12-23T19:44:12.103Z,14.40
2022-12-23T19:46:39.663Z,14.40
2022-12-23T19:49:07.099Z,14.40
2022-12-23T19:51:34.485Z,14.40
2022-12-23T19:54:02.087Z,14.40
2022-12-23T19:56:30.650Z,14.40
2022-12-23T19:58:58.099Z,14.40
2022-12-23T20:01:26.826Z,14.30
2022-12-23T20:03:56.272Z,14.30
2022-12-23T20:06:27.541Z,14.20
2022-12-23T20:09:00.274Z,14.20
2022-12-23T20:11:32.170Z,14.10
2022-12-23T20:14:00.870Z,14.10
2022-12-23T20:16:30.396Z,14.10
2022-12-23T20:18:58.177Z,14.00
2022-12-23T20:21:26.357Z,14.00
2022-12-23T20:23:55.691Z,13.90
2022-12-23T20:26:24.109Z,13.90
2022-12-23T20:28:51.887Z,13.80
2022-12-23T20:31:25.806Z,13.80
2022-12-23T20:33:54.691Z,13.80
2022-12-23T20:36:25.848Z,13.70
2022-12-23T20:38:53.621Z,13.70
2022-12-23T20:41:27.285Z,13.60
2022-12-23T20:44:32.397Z,13.60
2022-12-23T20:46:42.695Z,13.60
2022-12-23T20:49:10.109Z,13.50
2022-12-23T20:51:37.449Z,13.50
2022-12-23T20:54:05.004Z,13.50
2022-12-23T20:56:32.634Z,13.50
2022-12-23T20:59:00.592Z,13.50
2022-12-23T21:01:38.314Z,13.40
2022-12-23T21:04:15.999Z,13.50
2022-12-23T21:06:44.708Z,13.40
2022-12-23T21:09:15.111Z,13.30
2022-12-23T21:11:44.980Z,13.20
2022-12-23T21:14:13.259Z,13.20
2022-12-23T21:16:41.072Z,13.20
2022-12-23T21:19:13.265Z,13.10
2022-12-23T21:21:40.623Z,13.10
2022-12-23T21:24:08.042Z,13.10
2022-12-23T21:26:36.325Z,13.10
2022-12-23T21:29:05.826Z,13.10
2022-12-23T21:31:36.942Z,13.10
2022-12-23T21:34:04.992Z,13.10
2022-12-23T21:36:37.205Z,13.10
2022-12-23T21:39:06.643Z,13.00
2022-12-23T21:41:41.357Z,13.00
2022-12-23T21:44:09.178Z,13.00
2022-12-23T21:46:37.584Z,12.90
2022-12-23T21:49:05.195Z,12.90
2022-12-23T21:51:40.029Z,12.80
2022-12-23T21:54:10.304Z,12.80
2022-12-23T21:56:38.447Z,12.70
2022-12-23T21:59:16.202Z,12.70
2022-12-23T22:01:44.166Z,12.70
2022-12-23T22:04:12.170Z,12.70
2022-12-23T22:06:43.942Z,12.70
2022-12-23T22:09:15.062Z,12.80
2022-12-23T22:11:44.046Z,12.90
2022-12-23T22:14:13.870Z,12.90
2022-12-23T22:16:41.890Z,12.80
2022-12-23T22:19:09.987Z,12.70
2022-12-23T22:21:39.918Z,12.70
2022-12-23T22:24:07.861Z,12.70
2022-12-23T22:26:37.666Z,12.60
2022-12-23T22:29:06.793Z,12.50
2022-12-23T22:31:49.125Z,12.50
2022-12-23T22:34:19.847Z,12.50
2022-12-23T22:36:48.232Z,12.50
2022-12-23T22:39:20.997Z,12.60
2022-12-23T22:41:52.228Z,12.50
2022-12-23T22:44:22.514Z,12.50
2022-12-23T22:46:51.030Z,12.50
2022-12-23T22:49:19.288Z,12.60
2022-12-23T22:51:46.913Z,12.60
2022-12-23T22:54:14.871Z,12.60
2022-12-23T22:56:42.562Z,12.50
2022-12-23T22:59:19.942Z,12.50
2022-12-23T23:01:49.197Z,12.40
2022-12-23T23:04:16.569Z,12.40
2022-12-23T23:06:44.202Z,12.40
2022-12-23T23:09:17.904Z,12.40
2022-12-23T23:11:45.319Z,12.40
2022-12-23T23:14:13.136Z,12.40
2022-12-23T23:16:40.952Z,12.50
2022-12-23T23:19:09.386Z,12.50
2022-12-23T23:21:37.966Z,12.60
2022-12-23T23:24:06.250Z,12.60
2022-12-23T23:26:33.615Z,12.60
2022-12-23T23:29:00.965Z,12.60
2022-12-23T23:31:44.443Z,12.50
2022-12-23T23:34:13.586Z,12.50
2022-12-23T23:36:41.714Z,12.50
2022-12-23T23:39:09.298Z,12.60
2022-12-23T23:41:36.783Z,12.60
2022-12-23T23:44:04.769Z,12.60
2022-12-23T23:46:32.377Z,12.50
2022-12-23T23:48:59.949Z,12.50
2022-12-23T23:51:27.445Z,12.50
2022-12-23T23:53:57.369Z,12.50
2022-12-23T23:56:25.964Z,12.50
2022-12-23T23:58:54.738Z,12.40
